ENKR/KKN METAR and TAF weather

Enter ICAO airport designator
Station Type Date Time Source
ENKR METAR 2021/04/18 02:50 UTC NOAA

ENKR 180250Z AUTO 18005KT 9999 R05/P2000N R23///// NCD M01/M02 Q1033 RMK WIND 731FT 18011KT


Station Type Date Time Source
ENKR Decoded METAR 2021/04/18 02:50 UTC NOAA

Kirkenes Lufthavn, Norway (ENKR) 69-44N 029-54E 91M
Apr 17, 2021 - 10:50 PM EDT / 2021.04.18 0250 UTC
Wind: from the S (180 degrees) at 6 MPH (5 KT):0
Visibility: greater than 7 mile(s):0
Temperature: 30 F (-1 C)
Windchill: 23 F (-5 C):1
Dew Point: 28 F (-2 C)
Relative Humidity: 92%
Pressure (altimeter): 30.50 in. Hg (1033 hPa)
ob: ENKR 180250Z AUTO 18005KT 9999 R05/P2000N R23///// NCD M01/M02 Q1033 RMK WIND 731FT 18011KT
cycle: 3

Station Type Date Time Source
ENKR TAF 2017/08/31 21:36 UTC NOAA

TAF TAF ENKR 312300Z 3121/0109 29005KT 9999 FEW020 SCT040

Example: see airport list